createdAt,value
2018-01-03T00:02:04.491Z,0.93
2018-01-03T00:04:33.625Z,0.70
2018-01-03T00:07:02.007Z,0.60
2018-01-03T00:09:30.386Z,0.60
2018-01-03T00:11:58.746Z,1.00
2018-01-03T00:14:27.102Z,5.03
2018-01-03T00:16:55.454Z,0.70
2018-01-03T00:19:24.594Z,0.60
2018-01-03T00:21:52.984Z,1.33
2018-01-03T00:24:21.370Z,1.07
2018-01-03T00:26:49.739Z,2.60
2018-01-03T00:29:18.089Z,1.40
2018-01-03T00:31:46.477Z,0.83
2018-01-03T00:34:14.879Z,0.50
2018-01-03T00:36:43.340Z,0.60
2018-01-03T00:39:11.735Z,1.10
2018-01-03T00:41:40.089Z,3.87
2018-01-03T00:44:08.461Z,0.97
2018-01-03T00:46:36.837Z,1.33
2018-01-03T00:49:05.197Z,0.80
2018-01-03T00:51:34.455Z,1.23
2018-01-03T00:54:02.817Z,5.03
2018-01-03T00:56:31.286Z,4.97
2018-01-03T00:58:59.643Z,3.13
2018-01-03T01:01:28.780Z,2.37
2018-01-03T01:03:57.153Z,1.30
2018-01-03T01:06:25.619Z,1.63
2018-01-03T01:08:53.968Z,3.10
2018-01-03T01:11:23.099Z,4.60
2018-01-03T01:13:51.452Z,5.57
2018-01-03T01:16:20.596Z,5.80
2018-01-03T01:18:48.948Z,2.90
2018-01-03T01:21:17.617Z,5.67
2018-01-03T01:23:46.839Z,1.47
2018-01-03T01:26:15.188Z,1.27
2018-01-03T01:28:43.575Z,3.80
2018-01-03T01:31:11.927Z,2.10
2018-01-03T01:33:41.073Z,4.70
2018-01-03T01:36:09.467Z,5.03
2018-01-03T01:38:37.913Z,3.40
2018-01-03T01:41:06.286Z,1.70
2018-01-03T01:43:34.635Z,1.80
2018-01-03T01:46:03.763Z,2.30
2018-01-03T01:48:32.137Z,1.90
2018-01-03T01:51:00.560Z,1.67
2018-01-03T01:53:28.967Z,1.47
2018-01-03T01:55:58.235Z,1.27
2018-01-03T01:58:26.599Z,0.80
2018-01-03T02:00:54.967Z,2.23
2018-01-03T02:03:23.327Z,1.40
2018-01-03T02:05:51.715Z,0.50
2018-01-03T02:08:20.191Z,2.00
2018-01-03T02:10:48.560Z,0.73
2018-01-03T02:13:16.928Z,0.70
2018-01-03T02:15:45.294Z,1.20
2018-01-03T02:18:14.448Z,1.00
2018-01-03T02:20:42.807Z,1.37
2018-01-03T02:23:11.175Z,0.30
2018-01-03T02:25:39.543Z,1.00
2018-01-03T02:28:07.891Z,0.73
2018-01-03T02:30:36.267Z,1.43
2018-01-03T02:33:04.624Z,0.40
2018-01-03T02:35:33.006Z,0.30
2018-01-03T02:38:01.468Z,0.40
2018-01-03T02:40:29.832Z,0.50
2018-01-03T02:42:58.274Z,1.57
2018-01-03T02:45:27.400Z,0.90
2018-01-03T02:47:55.782Z,0.40
2018-01-03T02:50:24.178Z,0.20
2018-01-03T02:52:52.568Z,0.30
2018-01-03T02:55:21.947Z,0.83
2018-01-03T02:57:50.304Z,0.30
2018-01-03T03:00:18.395Z,0.20
2018-01-03T03:02:46.754Z,0.60
2018-01-03T03:05:15.946Z,0.20
2018-01-03T03:07:44.368Z,0.30
2018-01-03T03:10:12.765Z,0.30
2018-01-03T03:12:41.884Z,0.20
2018-01-03T03:15:11.010Z,1.60
2018-01-03T03:17:39.946Z,0.20
2018-01-03T03:20:08.316Z,0.87
2018-01-03T03:22:36.695Z,0.40
2018-01-03T03:25:05.080Z,0.30
2018-01-03T03:27:34.221Z,0.20
2018-01-03T03:30:02.600Z,0.53
2018-01-03T03:32:30.961Z,0.20
2018-01-03T03:35:00.177Z,0.20
2018-01-03T03:37:28.539Z,0.30
2018-01-03T03:39:57.666Z,0.40
2018-01-03T03:42:26.033Z,0.30
2018-01-03T03:44:54.439Z,0.30
2018-01-03T03:47:22.798Z,0.30
2018-01-03T03:49:51.154Z,0.30
2018-01-03T03:52:19.548Z,0.20
2018-01-03T03:54:47.925Z,0.20
2018-01-03T03:57:16.297Z,0.30
2018-01-03T03:59:44.651Z,0.20
2018-01-03T04:02:13.985Z,0.77
2018-01-03T04:04:42.500Z,0.30
2018-01-03T04:07:10.855Z,0.40
2018-01-03T04:09:39.330Z,0.30
2018-01-03T04:12:07.686Z,0.73
2018-01-03T04:14:36.051Z,2.00
2018-01-03T04:17:04.805Z,0.67
2018-01-03T04:19:33.175Z,0.67
2018-01-03T04:22:01.623Z,0.70
2018-01-03T04:24:29.984Z,1.20
2018-01-03T04:26:58.353Z,1.10
2018-01-03T04:29:27.473Z,1.00
2018-01-03T04:31:55.841Z,4.83
2018-01-03T04:34:24.192Z,0.70
2018-01-03T04:36:53.375Z,3.13
2018-01-03T04:39:21.816Z,0.60
2018-01-03T04:41:50.166Z,3.07
2018-01-03T04:44:18.538Z,0.80
2018-01-03T04:46:47.655Z,0.80
2018-01-03T04:49:16.023Z,1.80
2018-01-03T04:51:44.380Z,1.33
2018-01-03T04:54:13.540Z,0.80
2018-01-03T04:56:41.925Z,0.70
2018-01-03T04:59:10.287Z,1.37
2018-01-03T05:01:38.648Z,1.57
2018-01-03T05:04:06.996Z,2.20
2018-01-03T05:06:35.369Z,1.00
2018-01-03T05:09:03.828Z,4.83
2018-01-03T05:11:33.712Z,0.77
2018-01-03T05:14:02.990Z,2.20
2018-01-03T05:16:31.339Z,1.33
2018-01-03T05:19:00.578Z,8.50
2018-01-03T05:21:29.853Z,2.20
2018-01-03T05:23:58.377Z,0.97
2018-01-03T05:26:26.728Z,1.67
2018-01-03T05:28:55.120Z,3.77
2018-01-03T05:31:23.475Z,2.20
2018-01-03T05:33:51.860Z,5.87
2018-01-03T05:36:20.403Z,4.93
2018-01-03T05:38:49.525Z,2.60
2018-01-03T05:41:17.904Z,3.57
2018-01-03T05:43:46.251Z,2.60
2018-01-03T05:46:15.691Z,3.23
2018-01-03T05:48:44.085Z,5.90
2018-01-03T05:51:12.447Z,8.37
2018-01-03T05:53:40.827Z,15.27
2018-01-03T05:56:09.185Z,6.40
2018-01-03T05:58:38.447Z,7.67
2018-01-03T06:01:06.819Z,8.40
2018-01-03T06:03:35.206Z,1.97
2018-01-03T06:06:04.359Z,7.20
2018-01-03T06:08:32.744Z,12.07
2018-01-03T06:11:01.116Z,8.43
2018-01-03T06:13:29.464Z,9.13
2018-01-03T06:15:58.600Z,4.60
2018-01-03T06:18:26.961Z,10.90
2018-01-03T06:20:55.355Z,6.90
2018-01-03T06:23:23.727Z,10.47
2018-01-03T06:25:52.111Z,4.73
2018-01-03T06:28:20.543Z,9.87
2018-01-03T06:30:49.660Z,7.93
2018-01-03T06:33:18.111Z,8.93
2018-01-03T06:35:47.248Z,6.07
2018-01-03T06:38:15.610Z,8.60
2018-01-03T06:40:43.965Z,8.70
2018-01-03T06:43:12.352Z,9.00
2018-01-03T06:45:40.720Z,6.43
2018-01-03T06:48:09.856Z,17.90
2018-01-03T06:50:38.342Z,8.43
2018-01-03T06:53:06.712Z,12.83
2018-01-03T06:55:35.098Z,12.77
2018-01-03T06:58:03.479Z,10.10
2018-01-03T07:00:31.895Z,9.00
2018-01-03T07:03:00.362Z,8.67
2018-01-03T07:05:28.747Z,5.00
2018-01-03T07:07:57.110Z,8.73
2018-01-03T07:10:25.464Z,11.93
2018-01-03T07:12:53.845Z,8.30
2018-01-03T07:15:22.218Z,15.23
2018-01-03T07:17:50.574Z,11.60
2018-01-03T07:20:19.712Z,13.20
2018-01-03T07:22:48.109Z,11.27
2018-01-03T07:25:16.476Z,12.47
2018-01-03T07:27:44.841Z,8.60
2018-01-03T07:30:13.220Z,12.67
2018-01-03T07:32:41.584Z,6.97
2018-01-03T07:35:09.939Z,7.70
2018-01-03T07:37:39.084Z,5.43
2018-01-03T07:40:07.443Z,10.90
2018-01-03T07:42:35.815Z,16.10
2018-01-03T07:45:04.169Z,12.93
2018-01-03T07:47:33.316Z,8.37
2018-01-03T07:50:01.675Z,10.43
2018-01-03T07:52:30.028Z,13.13
2018-01-03T07:54:59.462Z,6.17
2018-01-03T07:57:29.262Z,17.43
2018-01-03T07:59:58.656Z,6.77
2018-01-03T08:02:28.046Z,11.03
2018-01-03T08:04:56.424Z,12.57
2018-01-03T08:07:25.812Z,2.93
2018-01-03T08:09:54.971Z,9.60
2018-01-03T08:12:23.523Z,5.23
2018-01-03T08:14:51.875Z,11.30
2018-01-03T08:17:20.239Z,4.57
2018-01-03T08:19:49.366Z,7.73
2018-01-03T08:22:17.763Z,6.13
2018-01-03T08:24:46.123Z,3.23
2018-01-03T08:27:14.479Z,3.43
2018-01-03T08:29:44.516Z,3.07
2018-01-03T08:32:12.902Z,2.20
2018-01-03T08:34:42.103Z,8.13
2018-01-03T08:37:10.461Z,6.90
2018-01-03T08:39:39.866Z,2.70
2018-01-03T08:42:08.242Z,7.10
2018-01-03T08:44:36.600Z,5.57
2018-01-03T08:47:05.743Z,2.80
2018-01-03T08:49:34.119Z,3.70
2018-01-03T08:52:02.495Z,2.40
2018-01-03T08:54:30.860Z,5.03
2018-01-03T08:56:59.369Z,6.50
2018-01-03T08:59:27.729Z,7.37
2018-01-03T09:01:56.204Z,7.87
2018-01-03T09:04:24.577Z,6.93
2018-01-03T09:06:52.940Z,4.67
2018-01-03T09:09:21.378Z,8.07
2018-01-03T09:11:49.755Z,12.60
2018-01-03T09:14:18.363Z,11.17
2018-01-03T09:16:46.916Z,11.13
2018-01-03T09:19:15.289Z,16.63
2018-01-03T09:21:43.983Z,12.63
2018-01-03T09:24:12.372Z,3.50
2018-01-03T09:26:40.759Z,8.10
2018-01-03T09:29:09.319Z,4.70
2018-01-03T09:31:37.703Z,20.47
2018-01-03T09:34:06.076Z,14.17
2018-01-03T09:36:34.508Z,14.00
2018-01-03T09:39:02.705Z,10.20
2018-01-03T09:41:31.065Z,5.83
2018-01-03T09:43:59.475Z,17.40
2018-01-03T09:46:27.552Z,14.93
2018-01-03T09:48:55.951Z,13.30
2018-01-03T09:51:25.079Z,5.13
2018-01-03T09:53:53.447Z,17.00
2018-01-03T09:56:22.589Z,14.03
2018-01-03T09:58:50.949Z,10.10
2018-01-03T10:01:19.330Z,11.93
2018-01-03T10:03:47.691Z,16.53
2018-01-03T10:06:16.089Z,9.70
2018-01-03T10:08:44.502Z,10.80
2018-01-03T10:11:12.867Z,12.83
2018-01-03T10:13:41.246Z,8.10
2018-01-03T10:16:09.612Z,22.23
2018-01-03T10:18:37.987Z,10.37
2018-01-03T10:21:06.350Z,16.67
2018-01-03T10:23:34.712Z,10.27
2018-01-03T10:26:03.080Z,13.23
2018-01-03T10:28:32.203Z,8.27
2018-01-03T10:31:00.574Z,9.73
2018-01-03T10:33:28.940Z,7.80
2018-01-03T10:35:57.319Z,12.43
2018-01-03T10:38:28.985Z,11.87
2018-01-03T10:40:57.379Z,11.90
2018-01-03T10:43:25.755Z,12.83
2018-01-03T10:45:54.226Z,20.70
2018-01-03T10:48:23.519Z,16.17
2018-01-03T10:50:53.722Z,5.47
2018-01-03T10:53:23.071Z,19.57
2018-01-03T10:55:51.492Z,11.33
2018-01-03T10:58:20.647Z,13.33
2018-01-03T11:00:48.827Z,9.70
2018-01-03T11:03:28.483Z,13.97
2018-01-03T11:05:56.851Z,10.60
2018-01-03T11:08:25.544Z,12.60
2018-01-03T11:10:53.925Z,15.83
2018-01-03T11:13:23.410Z,20.23
2018-01-03T11:15:53.407Z,8.10
2018-01-03T11:18:21.774Z,13.20
2018-01-03T11:20:50.143Z,24.07
2018-01-03T11:23:18.512Z,13.60
2018-01-03T11:25:46.884Z,14.30
2018-01-03T11:28:16.039Z,16.87
2018-01-03T11:30:45.181Z,14.50
2018-01-03T11:33:13.551Z,18.63
2018-01-03T11:35:42.695Z,15.17
2018-01-03T11:38:11.076Z,15.27
2018-01-03T11:40:39.444Z,15.33
2018-01-03T11:43:07.804Z,15.67
2018-01-03T11:45:36.297Z,12.07
2018-01-03T11:48:04.667Z,16.53
2018-01-03T11:50:33.093Z,19.20
2018-01-03T11:53:01.602Z,2.80
2018-01-03T11:55:30.747Z,16.57
2018-01-03T11:57:59.115Z,14.50
2018-01-03T12:00:27.479Z,25.03
2018-01-03T12:02:55.851Z,5.83
2018-01-03T12:05:25.036Z,23.60
2018-01-03T12:07:54.199Z,11.60
2018-01-03T12:10:22.568Z,15.00
2018-01-03T12:12:50.964Z,20.43
2018-01-03T12:15:19.331Z,11.00
2018-01-03T12:17:47.703Z,5.33
2018-01-03T12:20:16.084Z,12.10
2018-01-03T12:22:44.451Z,17.40
2018-01-03T12:25:12.839Z,12.30
2018-01-03T12:27:41.210Z,21.93
2018-01-03T12:30:09.636Z,8.57
2018-01-03T12:32:38.768Z,17.73
2018-01-03T12:35:07.151Z,23.53
2018-01-03T12:37:35.532Z,15.70
2018-01-03T12:40:03.657Z,17.97
2018-01-03T12:42:32.032Z,13.00
2018-01-03T12:45:00.216Z,10.03
2018-01-03T12:47:28.628Z,15.40
2018-01-03T12:49:57.000Z,14.23
2018-01-03T12:52:26.160Z,11.60
2018-01-03T12:54:55.700Z,12.33
2018-01-03T12:57:24.499Z,20.03
2018-01-03T12:59:52.872Z,5.17
2018-01-03T13:02:21.338Z,10.70
2018-01-03T13:04:49.739Z,14.90
2018-01-03T13:07:18.196Z,8.20
2018-01-03T13:09:46.558Z,17.83
2018-01-03T13:12:14.939Z,11.43
2018-01-03T13:14:43.564Z,17.43
2018-01-03T13:17:13.076Z,10.17
2018-01-03T13:19:41.493Z,14.40
2018-01-03T13:22:10.699Z,7.33
2018-01-03T13:24:39.062Z,11.20
2018-01-03T13:27:08.184Z,10.33
2018-01-03T13:29:36.656Z,18.73
2018-01-03T13:32:05.618Z,4.40
2018-01-03T13:34:34.006Z,15.63
2018-01-03T13:37:03.525Z,13.47
2018-01-03T13:39:32.695Z,14.33
2018-01-03T13:42:01.873Z,12.57
2018-01-03T13:44:30.448Z,16.10
2018-01-03T13:46:59.020Z,12.10
2018-01-03T13:49:27.397Z,13.33
2018-01-03T13:51:55.865Z,7.43
2018-01-03T13:54:24.283Z,12.40
2018-01-03T13:56:52.991Z,10.10
2018-01-03T13:59:22.118Z,12.43
2018-01-03T14:01:50.475Z,6.53
2018-01-03T14:04:19.632Z,11.20
2018-01-03T14:06:48.031Z,14.67
2018-01-03T14:09:16.458Z,17.33
2018-01-03T14:11:44.973Z,8.33
2018-01-03T14:14:13.368Z,10.77
2018-01-03T14:16:42.527Z,6.30
2018-01-03T14:19:10.895Z,14.67
2018-01-03T14:21:39.266Z,15.67
2018-01-03T14:24:08.775Z,10.20
2018-01-03T14:26:37.201Z,19.33
2018-01-03T14:29:05.573Z,18.93
2018-01-03T14:31:34.291Z,13.63
2018-01-03T14:34:03.463Z,10.40
2018-01-03T14:36:31.834Z,16.90
2018-01-03T14:39:00.272Z,16.37
2018-01-03T14:41:28.645Z,11.63
2018-01-03T14:43:57.017Z,6.83
2018-01-03T14:46:25.485Z,13.70
2018-01-03T14:48:53.862Z,21.83
2018-01-03T14:51:21.893Z,12.23
2018-01-03T14:53:50.270Z,5.90
2018-01-03T14:56:18.643Z,6.00
2018-01-03T14:58:47.017Z,10.43
2018-01-03T15:01:15.719Z,15.23
2018-01-03T15:03:45.107Z,11.73
2018-01-03T15:06:13.648Z,17.67
2018-01-03T15:08:42.052Z,16.63
2018-01-03T15:11:10.422Z,19.07
2018-01-03T15:13:38.826Z,12.63
2018-01-03T15:16:07.926Z,16.23
2018-01-03T15:18:36.312Z,14.33
2018-01-03T15:21:05.483Z,9.50
2018-01-03T15:23:34.025Z,24.03
2018-01-03T15:26:03.455Z,17.07
2018-01-03T15:28:31.815Z,18.37
2018-01-03T15:31:00.186Z,26.70
2018-01-03T15:33:28.547Z,22.43
2018-01-03T15:36:00.356Z,12.90
2018-01-03T15:38:28.711Z,15.83
2018-01-03T15:40:57.081Z,25.43
2018-01-03T15:43:25.442Z,9.13
2018-01-03T15:45:54.994Z,21.53
2018-01-03T15:48:23.361Z,20.30
2018-01-03T15:50:51.716Z,18.37
2018-01-03T15:53:20.091Z,13.43
2018-01-03T15:55:49.220Z,23.00
2018-01-03T15:58:17.612Z,15.27
2018-01-03T16:00:45.973Z,7.33
2018-01-03T16:03:14.339Z,20.43
2018-01-03T16:05:42.703Z,24.37
2018-01-03T16:08:11.107Z,31.87
2018-01-03T16:10:39.506Z,13.13
2018-01-03T16:13:07.873Z,12.03
2018-01-03T16:15:36.242Z,11.30
2018-01-03T16:18:04.744Z,11.40
2018-01-03T16:20:33.115Z,21.33
2018-01-03T16:23:01.494Z,19.73
2018-01-03T16:25:29.871Z,24.23
2018-01-03T16:27:58.327Z,10.20
2018-01-03T16:30:26.694Z,27.27
2018-01-03T16:32:55.084Z,25.03
2018-01-03T16:35:23.443Z,22.07
2018-01-03T16:37:51.837Z,18.03
2018-01-03T16:40:20.207Z,26.00
2018-01-03T16:42:48.571Z,18.30
2018-01-03T16:45:18.084Z,22.33
2018-01-03T16:47:49.004Z,15.97
2018-01-03T16:50:18.160Z,17.90
2018-01-03T16:52:52.092Z,12.57
2018-01-03T16:55:20.480Z,24.40
2018-01-03T16:57:50.903Z,28.03
2018-01-03T17:00:20.041Z,17.63
2018-01-03T17:02:49.915Z,18.63
2018-01-03T17:05:19.452Z,17.13
2018-01-03T17:07:47.895Z,19.50
2018-01-03T17:10:17.023Z,24.57
2018-01-03T17:12:45.410Z,21.23
2018-01-03T17:15:14.870Z,16.60
2018-01-03T17:17:43.255Z,34.30
2018-01-03T17:20:12.694Z,16.17
2018-01-03T17:22:41.074Z,18.20
2018-01-03T17:25:09.459Z,16.37
2018-01-03T17:27:38.009Z,20.43
2018-01-03T17:30:08.067Z,27.77
2018-01-03T17:32:36.433Z,10.97
2018-01-03T17:35:04.812Z,21.93
2018-01-03T17:37:33.174Z,13.23
2018-01-03T17:40:02.578Z,24.93
2018-01-03T17:42:30.951Z,11.57
2018-01-03T17:44:59.322Z,14.80
2018-01-03T17:47:28.466Z,4.67
2018-01-03T17:49:56.837Z,16.17
2018-01-03T17:52:25.216Z,22.83
2018-01-03T17:54:54.622Z,19.60
2018-01-03T17:57:22.803Z,18.27
2018-01-03T17:59:51.192Z,17.13
2018-01-03T18:02:21.404Z,27.97
2018-01-03T18:04:49.787Z,23.03
2018-01-03T18:07:18.160Z,25.83
2018-01-03T18:09:46.583Z,16.43
2018-01-03T18:12:15.756Z,20.83
2018-01-03T18:14:45.871Z,16.27
2018-01-03T18:17:15.070Z,30.87
2018-01-03T18:19:44.243Z,18.80
2018-01-03T18:22:13.644Z,22.60
2018-01-03T18:24:43.069Z,17.03
2018-01-03T18:27:12.499Z,15.20
2018-01-03T18:29:40.887Z,30.33
2018-01-03T18:32:09.280Z,26.87
2018-01-03T18:34:37.649Z,17.83
2018-01-03T18:37:06.096Z,29.90
2018-01-03T18:39:35.255Z,28.00
2018-01-03T18:42:03.679Z,29.70
2018-01-03T18:44:33.184Z,23.40
2018-01-03T18:47:02.313Z,24.57
2018-01-03T18:49:30.690Z,22.67
2018-01-03T18:51:59.047Z,3.73
2018-01-03T18:54:28.199Z,15.37
2018-01-03T18:56:56.761Z,14.17
2018-01-03T18:59:25.161Z,10.20
2018-01-03T19:01:53.611Z,19.07
2018-01-03T19:04:22.108Z,24.50
2018-01-03T19:06:51.197Z,23.30
2018-01-03T19:09:19.682Z,27.13
2018-01-03T19:11:48.945Z,21.73
2018-01-03T19:14:17.662Z,33.50
2018-01-03T19:16:46.188Z,30.93
2018-01-03T19:19:14.795Z,13.30
2018-01-03T19:21:47.256Z,22.17
2018-01-03T19:24:16.433Z,36.67
2018-01-03T19:26:44.817Z,21.37
2018-01-03T19:29:13.205Z,26.73
2018-01-03T19:31:42.327Z,19.27
2018-01-03T19:34:10.838Z,18.50
2018-01-03T19:36:39.304Z,7.53
2018-01-03T19:39:07.684Z,18.63
2018-01-03T19:41:36.113Z,27.13
2018-01-03T19:44:04.486Z,31.67
2018-01-03T19:46:34.478Z,24.60
2018-01-03T19:49:02.863Z,15.13
2018-01-03T19:51:31.321Z,23.37
2018-01-03T19:54:00.212Z,16.23
2018-01-03T19:56:28.568Z,26.23
2018-01-03T19:58:57.137Z,19.80
2018-01-03T20:01:25.614Z,25.23
2018-01-03T20:03:54.766Z,22.80
2018-01-03T20:06:23.932Z,19.67
2018-01-03T20:08:52.311Z,29.87
2018-01-03T20:11:20.690Z,31.90
2018-01-03T20:13:49.077Z,18.50
2018-01-03T20:16:17.466Z,32.27
2018-01-03T20:18:46.814Z,20.13
2018-01-03T20:21:16.005Z,18.70
2018-01-03T20:23:45.174Z,33.17
2018-01-03T20:26:13.400Z,19.13
2018-01-03T20:28:41.779Z,25.67
2018-01-03T20:31:10.926Z,8.93
2018-01-03T20:33:39.334Z,26.20
2018-01-03T20:36:08.501Z,23.33
2018-01-03T20:38:36.903Z,35.70
2018-01-03T20:41:06.053Z,16.63
2018-01-03T20:43:34.499Z,14.33
2018-01-03T20:46:03.684Z,15.90
2018-01-03T20:48:32.830Z,20.20
2018-01-03T20:51:01.233Z,20.10
2018-01-03T20:53:29.645Z,16.70
2018-01-03T20:55:58.108Z,15.97
2018-01-03T20:58:26.494Z,35.03
2018-01-03T21:00:55.814Z,28.70
2018-01-03T21:03:24.370Z,37.77
2018-01-03T21:05:53.524Z,32.80
2018-01-03T21:08:21.939Z,19.97
2018-01-03T21:10:51.101Z,21.83
2018-01-03T21:13:19.471Z,16.90
2018-01-03T21:15:47.847Z,19.43
2018-01-03T21:18:16.218Z,21.00
2018-01-03T21:20:44.573Z,28.00
2018-01-03T21:23:12.966Z,37.23
2018-01-03T21:25:41.336Z,23.17
2018-01-03T21:28:09.728Z,29.10
2018-01-03T21:30:38.101Z,21.33
2018-01-03T21:33:06.160Z,33.60
2018-01-03T21:35:34.556Z,22.23
2018-01-03T21:38:02.938Z,18.53
2018-01-03T21:40:31.362Z,11.90
2018-01-03T21:42:59.731Z,26.03
2018-01-03T21:45:28.109Z,29.63
2018-01-03T21:47:56.489Z,28.07
2018-01-03T21:50:25.301Z,11.07
2018-01-03T21:52:54.441Z,16.60
2018-01-03T21:55:22.804Z,25.47
2018-01-03T21:57:51.379Z,25.93
2018-01-03T22:00:19.780Z,25.40
2018-01-03T22:02:48.199Z,22.10
2018-01-03T22:05:16.575Z,22.00
2018-01-03T22:07:45.741Z,36.70
2018-01-03T22:10:14.129Z,14.60
2018-01-03T22:12:44.026Z,20.40
2018-01-03T22:15:12.416Z,20.30
2018-01-03T22:17:40.825Z,20.03
2018-01-03T22:20:09.224Z,31.87
2018-01-03T22:22:38.116Z,22.23
2018-01-03T22:25:06.544Z,22.70
2018-01-03T22:27:34.932Z,30.70
2018-01-03T22:30:03.310Z,20.23
2018-01-03T22:32:31.720Z,23.97
2018-01-03T22:35:00.856Z,24.93
2018-01-03T22:37:29.334Z,23.13
2018-01-03T22:39:58.144Z,9.63
2018-01-03T22:42:26.511Z,28.03
2018-01-03T22:44:54.887Z,17.40
2018-01-03T22:47:23.330Z,33.97
2018-01-03T22:49:52.467Z,27.57
2018-01-03T22:52:20.824Z,21.33
2018-01-03T22:54:48.878Z,33.20
2018-01-03T22:57:17.244Z,14.97
2018-01-03T22:59:46.383Z,21.10
2018-01-03T23:02:14.805Z,19.80
2018-01-03T23:04:43.171Z,17.20
2018-01-03T23:07:11.556Z,26.73
2018-01-03T23:09:39.990Z,19.53
2018-01-03T23:12:08.379Z,17.03
2018-01-03T23:14:36.743Z,26.20
2018-01-03T23:17:05.108Z,25.17
2018-01-03T23:19:33.305Z,20.70
2018-01-03T23:22:01.708Z,18.53
2018-01-03T23:24:30.151Z,20.50
2018-01-03T23:26:58.513Z,35.03
2018-01-03T23:29:27.648Z,18.30
2018-01-03T23:31:56.044Z,16.17
2018-01-03T23:34:24.477Z,25.83
2018-01-03T23:36:52.880Z,22.30
2018-01-03T23:39:21.347Z,12.30
2018-01-03T23:41:49.707Z,24.27
2018-01-03T23:44:18.087Z,31.90
2018-01-03T23:46:46.454Z,25.53
2018-01-03T23:49:15.605Z,14.20
2018-01-03T23:51:43.988Z,26.70
2018-01-03T23:54:12.352Z,23.67
2018-01-03T23:56:40.790Z,15.90
2018-01-03T23:59:10.300Z,20.10
